Main page


Airports :

Oban, Scotland

Oban Airport

latitude: 56-27-49N, longitude: 5-24-00W, elevation: 7 m

Current weather observation

The report was made 1 hour and 46 minutes ago, at 15:50 UTC
Wind 11 kt from the West/Southwest
Temperature 7°C
Humidity 61%
Pressure 1032 hPa
Visibility 10 km or more
no clouds below 1500 m and no cumulonimbus

METAR: EGEO 201550Z 25011KT CAVOK 07/M00 Q1032

Time: 17:36 (17:36 UTC)


The report was made 3 hours and 36 minutes ago, at 14:00 UTC
Forecast valid from 20 at 15 UTC to 20 at 17 UTC
Wind 3 kt from variable directions
Visibility 10 km or more
Few clouds at a height of 2500 ft

TAF: EGEO 201400Z 2015/2017 VRB03KT 9999 FEW025

Weather observations and forecasts of more than 4000 airports (METAR and TAF reports).

The available stations are represented by yellow and red dots on the map.

Hover mouse over dot to see the name of the station.

Then click to see weather observations and forecasts.

To change the map : click on the green buttons with a black cross to zoom in, on the green button with a dash to zoom out, or on the green arrows for adjacent maps.